Airport View

Enter AWOS ICAO identifier for current METAR.

ex. KFNL

KBUF 191754Z 26013G22KT 3/4SM R23/3000V3500FT -SN BLSN VV011 M04/M06 A2987 RMK AO2 SLP125 P0000 60002 4/001 T10391061 11006 21039 51020 $

19 Jan 2020 18:32

Phone: 716-635-0532

Other Area AWOS: KIAG - CWPC - CYSN - KGVQ

TAF AMD KBUF 191750Z 1918/2018 28014G24KT 1/2SM SN BLSN OVC015 FM192000 32013KT 2SM -SN OVC025 FM200300 33011KT P6SM -SHSN OVC020 FM200600 33009KT P6SM VCSH BKN025 FM201100 31007KT P6SM BKN035